sensor_id;sensor_type;location;lat;lon;timestamp;pressure;altitude;pressure_sealevel;temperature;humidity
21011;BME280;10663;42.714;23.274;2024-02-26T00:00:01;94354.56;;;7.78;100.00
21011;BME280;10663;42.714;23.274;2024-02-26T00:01:52;94357.75;;;7.80;100.00
21011;BME280;10663;42.714;23.274;2024-02-26T00:03:22;94355.53;;;8.14;100.00
21011;BME280;10663;42.714;23.274;2024-02-26T00:04:53;94358.28;;;8.34;100.00
21011;BME280;10663;42.714;23.274;2024-02-26T00:06:23;94355.91;;;8.33;100.00
21011;BME280;10663;42.714;23.274;2024-02-26T00:07:54;94347.66;;;8.24;100.00
21011;BME280;10663;42.714;23.274;2024-02-26T00:09:24;94359.88;;;8.35;100.00
21011;BME280;10663;42.714;23.274;2024-02-26T00:10:55;94354.88;;;8.44;100.00
21011;BME280;10663;42.714;23.274;2024-02-26T00:12:25;94356.69;;;8.33;100.00
21011;BME280;10663;42.714;23.274;2024-02-26T00:13:57;94354.03;;;8.28;100.00
21011;BME280;10663;42.714;23.274;2024-02-26T00:15:28;94341.69;;;8.44;100.00
21011;BME280;10663;42.714;23.274;2024-02-26T00:16:59;94345.19;;;8.70;100.00
21011;BME280;10663;42.714;23.274;2024-02-26T00:18:29;94339.59;;;8.56;100.00
21011;BME280;10663;42.714;23.274;2024-02-26T00:20:01;94350.91;;;8.36;100.00
21011;BME280;10663;42.714;23.274;2024-02-26T00:21:31;94356.34;;;8.19;100.00
21011;BME280;10663;42.714;23.274;2024-02-26T00:23:02;94348.13;;;8.11;100.00
21011;BME280;10663;42.714;23.274;2024-02-26T00:24:32;94345.56;;;8.26;100.00
21011;BME280;10663;42.714;23.274;2024-02-26T00:26:03;94342.09;;;8.15;100.00
21011;BME280;10663;42.714;23.274;2024-02-26T00:27:34;94346.56;;;8.10;100.00
21011;BME280;10663;42.714;23.274;2024-02-26T00:29:04;94341.50;;;8.03;100.00
21011;BME280;10663;42.714;23.274;2024-02-26T00:30:35;94333.88;;;8.07;100.00
21011;BME280;10663;42.714;23.274;2024-02-26T00:32:06;94335.72;;;8.11;100.00
21011;BME280;10663;42.714;23.274;2024-02-26T00:33:36;94335.78;;;8.16;100.00
21011;BME280;10663;42.714;23.274;2024-02-26T00:35:07;94337.56;;;8.01;100.00
21011;BME280;10663;42.714;23.274;2024-02-26T00:36:39;94338.56;;;7.95;100.00
21011;BME280;10663;42.714;23.274;2024-02-26T00:38:11;94336.53;;;8.12;100.00
21011;BME280;10663;42.714;23.274;2024-02-26T00:39:42;94340.16;;;7.91;100.00
21011;BME280;10663;42.714;23.274;2024-02-26T00:41:13;94333.84;;;8.02;100.00
21011;BME280;10663;42.714;23.274;2024-02-26T00:42:43;94328.06;;;8.00;100.00
21011;BME280;10663;42.714;23.274;2024-02-26T00:44:16;94318.41;;;8.31;100.00
21011;BME280;10663;42.714;23.274;2024-02-26T00:45:46;94321.09;;;8.41;100.00
21011;BME280;10663;42.714;23.274;2024-02-26T00:47:17;94318.50;;;8.56;100.00
21011;BME280;10663;42.714;23.274;2024-02-26T00:48:48;94321.38;;;8.49;100.00
21011;BME280;10663;42.714;23.274;2024-02-26T00:50:20;94322.19;;;8.45;100.00
21011;BME280;10663;42.714;23.274;2024-02-26T00:51:50;94317.56;;;8.20;99.96
21011;BME280;10663;42.714;23.274;2024-02-26T00:53:21;94313.19;;;8.36;100.00
21011;BME280;10663;42.714;23.274;2024-02-26T00:54:51;94314.53;;;8.48;100.00
21011;BME280;10663;42.714;23.274;2024-02-26T00:56:23;94313.69;;;8.33;99.61
21011;BME280;10663;42.714;23.274;2024-02-26T00:57:53;94311.63;;;8.50;100.00
21011;BME280;10663;42.714;23.274;2024-02-26T00:59:24;94309.50;;;8.37;100.00
21011;BME280;10663;42.714;23.274;2024-02-26T01:00:54;94311.63;;;8.45;100.00
21011;BME280;10663;42.714;23.274;2024-02-26T01:02:25;94314.81;;;8.57;99.73
21011;BME280;10663;42.714;23.274;2024-02-26T01:03:55;94310.59;;;8.61;99.20
21011;BME280;10663;42.714;23.274;2024-02-26T01:05:26;94314.00;;;8.46;99.50
21011;BME280;10663;42.714;23.274;2024-02-26T01:06:56;94312.94;;;8.42;99.42
21011;BME280;10663;42.714;23.274;2024-02-26T01:08:27;94307.84;;;8.25;100.00
21011;BME280;10663;42.714;23.274;2024-02-26T01:09:57;94308.56;;;8.11;100.00
21011;BME280;10663;42.714;23.274;2024-02-26T01:11:28;94315.13;;;8.03;100.00
21011;BME280;10663;42.714;23.274;2024-02-26T01:12:58;94311.94;;;7.96;100.00
21011;BME280;10663;42.714;23.274;2024-02-26T01:14:29;94308.50;;;7.91;100.00
21011;BME280;10663;42.714;23.274;2024-02-26T01:15:59;94305.34;;;7.88;100.00
21011;BME280;10663;42.714;23.274;2024-02-26T01:17:31;94307.53;;;8.07;100.00
21011;BME280;10663;42.714;23.274;2024-02-26T01:19:02;94301.53;;;8.26;100.00
21011;BME280;10663;42.714;23.274;2024-02-26T01:20:33;94294.97;;;8.39;100.00
21011;BME280;10663;42.714;23.274;2024-02-26T01:22:03;94304.16;;;8.26;100.00
21011;BME280;10663;42.714;23.274;2024-02-26T01:23:34;94300.19;;;8.29;100.00
21011;BME280;10663;42.714;23.274;2024-02-26T01:25:06;94302.66;;;8.46;100.00
21011;BME280;10663;42.714;23.274;2024-02-26T01:26:37;94301.31;;;8.48;100.00
21011;BME280;10663;42.714;23.274;2024-02-26T01:28:08;94296.88;;;8.64;100.00
21011;BME280;10663;42.714;23.274;2024-02-26T01:29:38;94302.44;;;8.73;100.00
21011;BME280;10663;42.714;23.274;2024-02-26T01:31:09;94301.91;;;8.81;100.00
21011;BME280;10663;42.714;23.274;2024-02-26T01:32:40;94303.78;;;8.90;100.00
21011;BME280;10663;42.714;23.274;2024-02-26T01:34:10;94299.03;;;8.97;100.00
21011;BME280;10663;42.714;23.274;2024-02-26T01:35:41;94292.41;;;9.00;100.00
21011;BME280;10663;42.714;23.274;2024-02-26T01:37:11;94294.00;;;8.91;100.00
21011;BME280;10663;42.714;23.274;2024-02-26T01:38:42;94288.44;;;8.77;99.71
21011;BME280;10663;42.714;23.274;2024-02-26T01:40:12;94294.50;;;8.68;100.00
21011;BME280;10663;42.714;23.274;2024-02-26T01:41:48;94290.03;;;8.88;100.00
21011;BME280;10663;42.714;23.274;2024-02-26T01:43:18;94288.44;;;8.92;100.00
21011;BME280;10663;42.714;23.274;2024-02-26T01:44:49;94287.66;;;8.87;100.00
21011;BME280;10663;42.714;23.274;2024-02-26T01:46:19;94286.88;;;8.86;100.00
21011;BME280;10663;42.714;23.274;2024-02-26T01:47:51;94285.28;;;8.80;100.00
21011;BME280;10663;42.714;23.274;2024-02-26T01:49:21;94287.66;;;8.72;100.00
21011;BME280;10663;42.714;23.274;2024-02-26T01:50:52;94283.69;;;8.69;100.00
21011;BME280;10663;42.714;23.274;2024-02-26T01:52:23;94290.03;;;8.83;100.00
21011;BME280;10663;42.714;23.274;2024-02-26T01:53:53;94286.09;;;8.91;100.00
21011;BME280;10663;42.714;23.274;2024-02-26T01:55:24;94281.31;;;8.93;100.00
21011;BME280;10663;42.714;23.274;2024-02-26T01:56:55;94282.09;;;9.04;100.00
21011;BME280;10663;42.714;23.274;2024-02-26T01:58:25;94288.44;;;8.87;98.85
21011;BME280;10663;42.714;23.274;2024-02-26T01:59:56;94286.63;;;8.83;98.52
21011;BME280;10663;42.714;23.274;2024-02-26T02:01:27;94283.44;;;8.91;99.48
21011;BME280;10663;42.714;23.274;2024-02-26T02:02:58;94285.56;;;8.74;98.42
21011;BME280;10663;42.714;23.274;2024-02-26T02:04:28;94287.63;;;8.51;99.34
21011;BME280;10663;42.714;23.274;2024-02-26T02:05:59;94286.03;;;8.50;100.00
21011;BME280;10663;42.714;23.274;2024-02-26T02:07:30;94275.19;;;8.42;100.00
21011;BME280;10663;42.714;23.274;2024-02-26T02:09:00;94284.44;;;8.34;100.00
21011;BME280;10663;42.714;23.274;2024-02-26T02:10:36;94281.78;;;8.34;100.00
21011;BME280;10663;42.714;23.274;2024-02-26T02:12:08;94275.41;;;8.25;100.00
21011;BME280;10663;42.714;23.274;2024-02-26T02:13:38;94278.28;;;8.28;100.00
21011;BME280;10663;42.714;23.274;2024-02-26T02:15:09;94282.34;;;8.46;100.00
21011;BME280;10663;42.714;23.274;2024-02-26T02:16:39;94279.16;;;8.34;100.00
21011;BME280;10663;42.714;23.274;2024-02-26T02:18:10;94276.00;;;8.42;100.00
21011;BME280;10663;42.714;23.274;2024-02-26T02:19:41;94279.41;;;8.33;100.00
21011;BME280;10663;42.714;23.274;2024-02-26T02:21:11;94273.03;;;8.28;100.00
21011;BME280;10663;42.714;23.274;2024-02-26T02:22:42;94279.41;;;8.33;100.00
21011;BME280;10663;42.714;23.274;2024-02-26T02:24:13;94277.84;;;8.47;100.00
21011;BME280;10663;42.714;23.274;2024-02-26T02:25:43;94280.53;;;8.62;100.00
21011;BME280;10663;42.714;23.274;2024-02-26T02:27:14;94277.59;;;8.53;100.00
21011;BME280;10663;42.714;23.274;2024-02-26T02:28:44;94281.00;;;8.39;100.00
21011;BME280;10663;42.714;23.274;2024-02-26T02:30:16;94277.25;;;8.30;100.00
21011;BME280;10663;42.714;23.274;2024-02-26T02:31:46;94281.72;;;8.29;100.00
21011;BME280;10663;42.714;23.274;2024-02-26T02:33:17;94279.16;;;8.49;100.00
21011;BME280;10663;42.714;23.274;2024-02-26T02:34:47;94273.94;;;8.65;100.00
21011;BME280;10663;42.714;23.274;2024-02-26T02:36:18;94269.97;;;8.62;100.00
21011;BME280;10663;42.714;23.274;2024-02-26T02:37:51;94274.44;;;8.51;100.00
21011;BME280;10663;42.714;23.274;2024-02-26T02:39:22;94272.56;;;8.37;100.00
21011;BME280;10663;42.714;23.274;2024-02-26T02:40:52;94270.72;;;8.37;100.00
21011;BME280;10663;42.714;23.274;2024-02-26T02:42:23;94265.97;;;8.39;100.00
21011;BME280;10663;42.714;23.274;2024-02-26T02:43:54;94274.66;;;8.40;100.00
21011;BME280;10663;42.714;23.274;2024-02-26T02:45:24;94277.25;;;8.30;100.00
21011;BME280;10663;42.714;23.274;2024-02-26T02:46:55;94286.72;;;8.20;100.00
21011;BME280;10663;42.714;23.274;2024-02-26T02:48:25;94278.25;;;8.13;100.00
21011;BME280;10663;42.714;23.274;2024-02-26T02:49:56;94277.47;;;8.13;100.00
21011;BME280;10663;42.714;23.274;2024-02-26T02:51:26;94275.38;;;8.15;100.00
21011;BME280;10663;42.714;23.274;2024-02-26T02:52:57;94282.56;;;8.40;100.00
21011;BME280;10663;42.714;23.274;2024-02-26T02:54:27;94288.41;;;8.37;100.00
21011;BME280;10663;42.714;23.274;2024-02-26T02:55:58;94280.47;;;8.42;100.00
21011;BME280;10663;42.714;23.274;2024-02-26T02:57:30;94279.97;;;8.60;100.00
21011;BME280;10663;42.714;23.274;2024-02-26T02:59:01;94288.69;;;8.60;100.00
21011;BME280;10663;42.714;23.274;2024-02-26T03:00:32;94293.97;;;8.66;100.00
21011;BME280;10663;42.714;23.274;2024-02-26T03:02:02;94299.25;;;8.76;100.00
21011;BME280;10663;42.714;23.274;2024-02-26T03:03:33;94288.97;;;8.84;100.00
21011;BME280;10663;42.714;23.274;2024-02-26T03:05:04;94287.91;;;8.70;100.00
21011;BME280;10663;42.714;23.274;2024-02-26T03:06:34;94282.63;;;8.70;100.00
21011;BME280;10663;42.714;23.274;2024-02-26T03:08:05;94283.16;;;8.87;100.00
21011;BME280;10663;42.714;23.274;2024-02-26T03:09:35;94291.63;;;8.89;100.00
21011;BME280;10663;42.714;23.274;2024-02-26T03:11:06;94295.59;;;8.97;100.00
21011;BME280;10663;42.714;23.274;2024-02-26T03:12:36;94284.75;;;9.09;100.00
21011;BME280;10663;42.714;23.274;2024-02-26T03:14:07;94291.34;;;9.06;99.48
21011;BME280;10663;42.714;23.274;2024-02-26T03:15:37;94287.13;;;9.05;99.80
21011;BME280;10663;42.714;23.274;2024-02-26T03:17:08;94288.97;;;9.05;99.80
21011;BME280;10663;42.714;23.274;2024-02-26T03:18:39;94286.06;;;9.06;99.85
21011;BME280;10663;42.714;23.274;2024-02-26T03:20:10;94289.78;;;9.00;99.85
21011;BME280;10663;42.714;23.274;2024-02-26T03:21:41;94283.69;;;9.05;100.00
21011;BME280;10663;42.714;23.274;2024-02-26T03:23:11;94289.78;;;9.05;99.73
21011;BME280;10663;42.714;23.274;2024-02-26T03:24:49;94289.50;;;9.01;99.17
21011;BME280;10663;42.714;23.274;2024-02-26T03:26:19;94283.72;;;8.99;98.97
21011;BME280;10663;42.714;23.274;2024-02-26T03:27:50;94282.91;;;9.09;99.07
21011;BME280;10663;42.714;23.274;2024-02-26T03:29:20;94273.41;;;9.08;99.04
21011;BME280;10663;42.714;23.274;2024-02-26T03:30:51;94273.94;;;9.10;98.80
21011;BME280;10663;42.714;23.274;2024-02-26T03:32:21;94264.16;;;9.16;98.67
21011;BME280;10663;42.714;23.274;2024-02-26T03:33:52;94264.94;;;9.16;99.11
21011;BME280;10663;42.714;23.274;2024-02-26T03:35:22;94268.63;;;9.15;98.86
21011;BME280;10663;42.714;23.274;2024-02-26T03:36:53;94272.34;;;9.14;99.03
21011;BME280;10663;42.714;23.274;2024-02-26T03:38:23;94267.84;;;9.15;98.87
21011;BME280;10663;42.714;23.274;2024-02-26T03:39:54;94263.09;;;9.12;98.89
21011;BME280;10663;42.714;23.274;2024-02-26T03:41:24;94267.03;;;9.24;98.83
21011;BME280;10663;42.714;23.274;2024-02-26T03:42:55;94265.72;;;9.12;98.82
21011;BME280;10663;42.714;23.274;2024-02-26T03:44:27;94262.03;;;9.02;98.62
21011;BME280;10663;42.714;23.274;2024-02-26T03:45:58;94267.59;;;8.86;99.31
21011;BME280;10663;42.714;23.274;2024-02-26T03:47:28;94265.22;;;8.79;100.00
21011;BME280;10663;42.714;23.274;2024-02-26T03:48:58;94271.00;;;8.76;100.00
21011;BME280;10663;42.714;23.274;2024-02-26T03:50:29;94266.78;;;8.85;100.00
21011;BME280;10663;42.714;23.274;2024-02-26T03:51:59;94263.88;;;9.02;100.00
21011;BME280;10663;42.714;23.274;2024-02-26T03:53:30;94266.00;;;8.90;100.00
21011;BME280;10663;42.714;23.274;2024-02-26T03:55:00;94263.63;;;8.93;100.00
21011;BME280;10663;42.714;23.274;2024-02-26T03:56:31;94254.91;;;8.98;100.00
21011;BME280;10663;42.714;23.274;2024-02-26T03:58:01;94259.94;;;8.99;100.00
21011;BME280;10663;42.714;23.274;2024-02-26T03:59:34;94255.19;;;8.86;100.00
21011;BME280;10663;42.714;23.274;2024-02-26T04:01:09;94262.06;;;8.97;100.00
21011;BME280;10663;42.714;23.274;2024-02-26T04:02:39;94259.66;;;8.96;100.00
21011;BME280;10663;42.714;23.274;2024-02-26T04:04:10;94259.94;;;8.94;100.00
21011;BME280;10663;42.714;23.274;2024-02-26T04:05:40;94257.81;;;9.01;100.00
21011;BME280;10663;42.714;23.274;2024-02-26T04:07:14;94253.06;;;8.98;100.00
21011;BME280;10663;42.714;23.274;2024-02-26T04:08:45;94254.13;;;8.92;100.00
21011;BME280;10663;42.714;23.274;2024-02-26T04:10:15;94258.34;;;8.98;100.00
21011;BME280;10663;42.714;23.274;2024-02-26T04:11:46;94253.59;;;9.06;100.00
21011;BME280;10663;42.714;23.274;2024-02-26T04:13:17;94248.31;;;9.00;99.68
21011;BME280;10663;42.714;23.274;2024-02-26T04:14:48;94255.72;;;8.98;99.94
21011;BME280;10663;42.714;23.274;2024-02-26T04:16:19;94248.06;;;8.92;99.77
21011;BME280;10663;42.714;23.274;2024-02-26T04:17:49;94252.81;;;9.00;99.69
21011;BME280;10663;42.714;23.274;2024-02-26T04:19:20;94254.66;;;9.05;100.00
21011;BME280;10663;42.714;23.274;2024-02-26T04:20:51;94252.00;;;9.05;100.00
21011;BME280;10663;42.714;23.274;2024-02-26T04:22:21;94241.16;;;9.11;100.00
21011;BME280;10663;42.714;23.274;2024-02-26T04:23:52;94239.09;;;8.88;100.00
21011;BME280;10663;42.714;23.274;2024-02-26T04:25:25;94235.63;;;8.92;100.00
21011;BME280;10663;42.714;23.274;2024-02-26T04:26:55;94240.66;;;8.89;100.00
21011;BME280;10663;42.714;23.274;2024-02-26T04:28:26;94245.13;;;8.83;100.00
21011;BME280;10663;42.714;23.274;2024-02-26T04:29:59;94246.22;;;8.82;100.00
21011;BME280;10663;42.714;23.274;2024-02-26T04:31:29;94252.56;;;8.81;100.00
21011;BME280;10663;42.714;23.274;2024-02-26T04:33:03;94248.06;;;8.77;100.00
21011;BME280;10663;42.714;23.274;2024-02-26T04:34:34;94248.59;;;8.74;100.00
21011;BME280;10663;42.714;23.274;2024-02-26T04:36:05;94242.53;;;8.63;100.00
21011;BME280;10663;42.714;23.274;2024-02-26T04:37:40;94235.56;;;8.21;100.00
21011;BME280;10663;42.714;23.274;2024-02-26T04:39:11;94243.81;;;8.35;100.00
21011;BME280;10663;42.714;23.274;2024-02-26T04:40:41;94249.88;;;8.51;100.00
21011;BME280;10663;42.714;23.274;2024-02-26T04:42:12;94250.44;;;8.68;100.00
21011;BME280;10663;42.714;23.274;2024-02-26T04:43:42;94247.00;;;8.73;100.00
21011;BME280;10663;42.714;23.274;2024-02-26T04:45:13;94250.44;;;8.73;100.00
21011;BME280;10663;42.714;23.274;2024-02-26T04:46:43;94252.56;;;8.81;100.00
21011;BME280;10663;42.714;23.274;2024-02-26T04:48:14;94258.59;;;8.77;100.00
21011;BME280;10663;42.714;23.274;2024-02-26T04:49:44;94260.72;;;8.54;100.00
21011;BME280;10663;42.714;23.274;2024-02-26T04:51:15;94259.66;;;8.55;100.00
21011;BME280;10663;42.714;23.274;2024-02-26T04:52:45;94258.34;;;8.68;100.00
21011;BME280;10663;42.714;23.274;2024-02-26T04:54:16;94255.19;;;8.71;100.00
21011;BME280;10663;42.714;23.274;2024-02-26T04:55:47;94260.47;;;8.76;100.00
21011;BME280;10663;42.714;23.274;2024-02-26T04:57:18;94259.91;;;8.49;100.00
21011;BME280;10663;42.714;23.274;2024-02-26T04:58:48;94263.31;;;8.34;100.00
21011;BME280;10663;42.714;23.274;2024-02-26T05:00:19;94265.63;;;8.15;100.00
21011;BME280;10663;42.714;23.274;2024-02-26T05:01:51;94267.22;;;8.16;100.00
21011;BME280;10663;42.714;23.274;2024-02-26T05:03:23;94265.69;;;8.36;100.00
21011;BME280;10663;42.714;23.274;2024-02-26T05:04:53;94263.59;;;8.43;100.00
21011;BME280;10663;42.714;23.274;2024-02-26T05:06:24;94272.31;;;8.43;100.00
21011;BME280;10663;42.714;23.274;2024-02-26T05:07:54;94270.44;;;8.39;100.00
21011;BME280;10663;42.714;23.274;2024-02-26T05:09:24;94269.31;;;8.19;100.00
21011;BME280;10663;42.714;23.274;2024-02-26T05:10:55;94270.06;;;8.05;100.00
21011;BME280;10663;42.714;23.274;2024-02-26T05:12:26;94291.94;;;8.05;100.00
21011;BME280;10663;42.714;23.274;2024-02-26T05:13:57;94288.22;;;8.01;100.00
21011;BME280;10663;42.714;23.274;2024-02-26T05:15:27;94284.50;;;7.87;100.00
21011;BME280;10663;42.714;23.274;2024-02-26T05:16:58;94291.31;;;7.73;100.00
21011;BME280;10663;42.714;23.274;2024-02-26T05:18:28;94286.47;;;7.60;100.00
21011;BME280;10663;42.714;23.274;2024-02-26T05:19:58;94286.69;;;7.48;100.00
21011;BME280;10663;42.714;23.274;2024-02-26T05:21:29;94285.97;;;7.63;100.00
21011;BME280;10663;42.714;23.274;2024-02-26T05:22:59;94288.19;;;7.86;100.00
21011;BME280;10663;42.714;23.274;2024-02-26T05:24:30;94293.50;;;7.91;100.00
21011;BME280;10663;42.714;23.274;2024-02-26T05:26:00;94295.41;;;8.21;100.00
21011;BME280;10663;42.714;23.274;2024-02-26T05:27:31;94290.78;;;8.43;100.00
21011;BME280;10663;42.714;23.274;2024-02-26T05:29:02;94301.88;;;8.45;100.00
21011;BME280;10663;42.714;23.274;2024-02-26T05:30:32;94307.41;;;8.59;100.00
21011;BME280;10663;42.714;23.274;2024-02-26T05:32:03;94307.69;;;8.57;100.00
21011;BME280;10663;42.714;23.274;2024-02-26T05:33:33;94310.84;;;8.54;100.00
21011;BME280;10663;42.714;23.274;2024-02-26T05:35:05;94303.47;;;8.46;100.00
21011;BME280;10663;42.714;23.274;2024-02-26T05:36:36;94308.72;;;8.56;100.00
21011;BME280;10663;42.714;23.274;2024-02-26T05:38:06;94315.34;;;8.54;100.00
21011;BME280;10663;42.714;23.274;2024-02-26T05:39:37;94318.75;;;8.49;100.00
21011;BME280;10663;42.714;23.274;2024-02-26T05:41:07;94321.13;;;8.51;100.00
21011;BME280;10663;42.714;23.274;2024-02-26T05:42:39;94316.13;;;8.54;100.00
21011;BME280;10663;42.714;23.274;2024-02-26T05:44:10;94316.66;;;8.67;100.00
21011;BME280;10663;42.714;23.274;2024-02-26T05:45:41;94311.66;;;8.75;100.00
21011;BME280;10663;42.714;23.274;2024-02-26T05:47:11;94311.16;;;8.78;100.00
21011;BME280;10663;42.714;23.274;2024-02-26T05:48:42;94316.44;;;8.73;100.00
21011;BME280;10663;42.714;23.274;2024-02-26T05:50:13;94313.28;;;8.81;100.00
21011;BME280;10663;42.714;23.274;2024-02-26T05:51:43;94312.47;;;8.81;100.00
21011;BME280;10663;42.714;23.274;2024-02-26T05:53:14;94314.34;;;8.90;100.00
21011;BME280;10663;42.714;23.274;2024-02-26T05:54:44;94316.69;;;8.87;100.00
21011;BME280;10663;42.714;23.274;2024-02-26T05:56:15;94313.81;;;8.98;100.00
21011;BME280;10663;42.714;23.274;2024-02-26T05:57:45;94314.59;;;8.94;100.00
21011;BME280;10663;42.714;23.274;2024-02-26T05:59:16;94313.00;;;8.93;100.00
21011;BME280;10663;42.714;23.274;2024-02-26T06:00:46;94314.84;;;9.02;100.00
21011;BME280;10663;42.714;23.274;2024-02-26T06:02:17;94313.00;;;9.03;100.00
21011;BME280;10663;42.714;23.274;2024-02-26T06:03:47;94307.47;;;8.99;100.00
21011;BME280;10663;42.714;23.274;2024-02-26T06:05:18;94316.19;;;9.15;100.00
21011;BME280;10663;42.714;23.274;2024-02-26T06:06:49;94318.56;;;9.27;100.00
21011;BME280;10663;42.714;23.274;2024-02-26T06:08:20;94318.56;;;9.27;100.00
21011;BME280;10663;42.714;23.274;2024-02-26T06:09:51;94320.94;;;9.23;100.00
21011;BME280;10663;42.714;23.274;2024-02-26T06:11:21;94321.72;;;9.29;99.95
21011;BME280;10663;42.714;23.274;2024-02-26T06:12:53;94324.38;;;9.19;99.91
21011;BME280;10663;42.714;23.274;2024-02-26T06:14:23;94324.09;;;9.15;100.00
21011;BME280;10663;42.714;23.274;2024-02-26T06:15:55;94321.44;;;9.30;100.00
21011;BME280;10663;42.714;23.274;2024-02-26T06:17:25;94328.06;;;9.33;100.00
21011;BME280;10663;42.714;23.274;2024-02-26T06:18:56;94322.00;;;9.27;100.00
21011;BME280;10663;42.714;23.274;2024-02-26T06:20:26;94328.03;;;9.38;100.00
21011;BME280;10663;42.714;23.274;2024-02-26T06:21:57;94322.50;;;9.34;100.00
21011;BME280;10663;42.714;23.274;2024-02-26T06:23:27;94327.28;;;9.37;100.00
21011;BME280;10663;42.714;23.274;2024-02-26T06:24:58;94326.72;;;9.41;100.00
21011;BME280;10663;42.714;23.274;2024-02-26T06:26:28;94325.94;;;9.50;100.00
21011;BME280;10663;42.714;23.274;2024-02-26T06:27:59;94325.41;;;9.53;99.85
21011;BME280;10663;42.714;23.274;2024-02-26T06:29:30;94326.44;;;9.62;99.84
21011;BME280;10663;42.714;23.274;2024-02-26T06:31:00;94327.00;;;9.54;99.05
21011;BME280;10663;42.714;23.274;2024-02-26T06:32:31;94327.78;;;9.39;99.02
21011;BME280;10663;42.714;23.274;2024-02-26T06:34:01;94331.72;;;9.62;100.00
21011;BME280;10663;42.714;23.274;2024-02-26T06:35:32;94327.00;;;9.54;99.08
21011;BME280;10663;42.714;23.274;2024-02-26T06:37:02;94329.09;;;9.47;98.88
21011;BME280;10663;42.714;23.274;2024-02-26T06:38:33;94330.94;;;9.52;99.46
21011;BME280;10663;42.714;23.274;2024-02-26T06:40:04;94329.38;;;9.46;99.45
21011;BME280;10663;42.714;23.274;2024-02-26T06:41:36;94334.13;;;9.38;99.41
21011;BME280;10663;42.714;23.274;2024-02-26T06:43:09;94337.03;;;9.47;100.00
21011;BME280;10663;42.714;23.274;2024-02-26T06:44:39;94332.28;;;9.54;100.00
21011;BME280;10663;42.714;23.274;2024-02-26T06:46:10;94330.97;;;9.47;99.25
21011;BME280;10663;42.714;23.274;2024-02-26T06:47:40;94337.84;;;9.22;99.24
21011;BME280;10663;42.714;23.274;2024-02-26T06:49:11;94327.53;;;9.36;99.65
21011;BME280;10663;42.714;23.274;2024-02-26T06:50:41;94328.34;;;9.26;99.08
21011;BME280;10663;42.714;23.274;2024-02-26T06:52:12;94336.25;;;9.31;99.36
21011;BME280;10663;42.714;23.274;2024-02-26T06:53:42;94334.41;;;9.22;99.55
21011;BME280;10663;42.714;23.274;2024-02-26T06:55:13;94337.06;;;9.27;98.52
21011;BME280;10663;42.714;23.274;2024-02-26T06:56:44;94340.72;;;9.21;98.35
21011;BME280;10663;42.714;23.274;2024-02-26T06:58:14;94342.06;;;9.38;100.00
21011;BME280;10663;42.714;23.274;2024-02-26T06:59:45;94349.97;;;9.38;98.79
21011;BME280;10663;42.714;23.274;2024-02-26T07:01:17;94337.56;;;9.29;98.43
21011;BME280;10663;42.714;23.274;2024-02-26T07:02:48;94337.59;;;9.09;99.72
21011;BME280;10663;42.714;23.274;2024-02-26T07:04:18;94337.31;;;9.10;99.17
21011;BME280;10663;42.714;23.274;2024-02-26T07:05:49;94339.16;;;9.05;98.91
21011;BME280;10663;42.714;23.274;2024-02-26T07:07:19;94339.16;;;8.99;100.00
21011;BME280;10663;42.714;23.274;2024-02-26T07:08:50;94342.31;;;9.01;100.00
21011;BME280;10663;42.714;23.274;2024-02-26T07:10:20;94345.22;;;8.95;100.00
21011;BME280;10663;42.714;23.274;2024-02-26T07:11:51;94345.22;;;8.90;100.00
21011;BME280;10663;42.714;23.274;2024-02-26T07:13:22;94345.75;;;8.87;100.00
21011;BME280;10663;42.714;23.274;2024-02-26T07:14:52;94337.03;;;8.91;100.00
21011;BME280;10663;42.714;23.274;2024-02-26T07:16:23;94346.81;;;8.91;99.91
21011;BME280;10663;42.714;23.274;2024-02-26T07:17:53;94351.03;;;8.87;99.69
21011;BME280;10663;42.714;23.274;2024-02-26T07:19:24;94346.28;;;9.04;98.77
21011;BME280;10663;42.714;23.274;2024-02-26T07:20:54;94352.09;;;8.91;99.51
21011;BME280;10663;42.714;23.274;2024-02-26T07:22:26;94354.16;;;8.84;100.00
21011;BME280;10663;42.714;23.274;2024-02-26T07:23:56;94354.44;;;8.92;100.00
21011;BME280;10663;42.714;23.274;2024-02-26T07:25:27;94354.72;;;9.11;99.35
21011;BME280;10663;42.714;23.274;2024-02-26T07:26:57;94351.59;;;9.24;100.00
21011;BME280;10663;42.714;23.274;2024-02-26T07:28:28;94351.84;;;9.23;100.00
21011;BME280;10663;42.714;23.274;2024-02-26T07:29:58;94351.06;;;9.17;98.83
21011;BME280;10663;42.714;23.274;2024-02-26T07:31:29;94349.47;;;9.21;99.08
21011;BME280;10663;42.714;23.274;2024-02-26T07:32:59;94351.28;;;9.11;99.34
21011;BME280;10663;42.714;23.274;2024-02-26T07:34:30;94348.41;;;9.12;99.14
21011;BME280;10663;42.714;23.274;2024-02-26T07:36:00;94350.78;;;9.04;99.98
21011;BME280;10663;42.714;23.274;2024-02-26T07:37:31;94344.97;;;9.12;99.53
21011;BME280;10663;42.714;23.274;2024-02-26T07:39:01;94343.66;;;9.24;99.20
21011;BME280;10663;42.714;23.274;2024-02-26T07:40:32;94354.22;;;9.34;98.91
21011;BME280;10663;42.714;23.274;2024-02-26T07:42:02;94355.50;;;9.57;98.49
21011;BME280;10663;42.714;23.274;2024-02-26T07:43:33;94356.56;;;9.61;97.04
21011;BME280;10663;42.714;23.274;2024-02-26T07:45:04;94364.53;;;9.41;95.97
21011;BME280;10663;42.714;23.274;2024-02-26T07:46:34;94360.03;;;9.52;98.00
21011;BME280;10663;42.714;23.274;2024-02-26T07:48:05;94354.97;;;9.70;98.39
21011;BME280;10663;42.714;23.274;2024-02-26T07:49:36;94364.53;;;9.41;96.43
21011;BME280;10663;42.714;23.274;2024-02-26T07:51:06;94355.00;;;9.40;98.38
21011;BME280;10663;42.714;23.274;2024-02-26T07:52:37;94348.91;;;9.50;98.70
21011;BME280;10663;42.714;23.274;2024-02-26T07:54:07;94358.16;;;9.62;96.52
21011;BME280;10663;42.714;23.274;2024-02-26T07:55:38;94356.56;;;9.71;96.23